Details From URRR - Rostov Na Donu
To UKOH - Khersones Ab
Flight Number -
Tags Generated
Created
Modified
Stats Distance 314 nm / 581 km
Max Altitude 0 ft / 0 m
Waypoints 3
Social Downloads 0
Likes 0
Share VATSIM

Download

Looking for another format? Having issues loading an existing format? Contact us
Advertisement - Login to hide

Notes

Generated

Route

URRR RUSUS UKOH

ID Type Via Altitude Latitude Longitude Leg Dist Tot Dist Heading (true) Name
O URRR APT - 0 ft / 0 m 47.25036˚ 39.80625˚ - 0 nm - -
RUSUS FIX - 0 ft / 0 m 44.78167˚ 33.59094˚ 298 nm 298 nm 242° / 238° -
O UKOH APT - 0 ft / 0 m 44.57188˚ 33.39401˚ 15 nm 313 nm 214° / 214° -

Altitude Profile

Advertisement - Login to hide

Weather


0- 5 10 15 20 25 30 35+ Temperature / ° C

Clouds and Precipitation
Forecast for 2017-12-12 00:00 UTC. Updated 28 minutes ago

Ground ~20,000 ft ~40,000 ft Winds

URRR

Details ICAO URRR (ROV)
Name Rostov Na Donu
Region Russia
Timezone Europe/Moscow (UTC+3.0)
Stats Elevation 280 ft / 85 m (AMSL)
Location 47.254195° 39.816074°
Runways 3
Magnetic Variation 8.119° E

METAR

URRR 111930Z 20004MPS 8000 FEW031 05/02 Q1023 R22/150060 NOSIG RMK QFE759/1013

Decode

TAF

TAF URRR 111702Z 1118/1218 21006G12MPS 9999 SCT011 SCT020CB BECMG 1121/1123 3100 -SHRA BR

Decode

Departure Runways

ID Width Length Bearing (true) Bearing (mag) Surface Threshold Offset Overrun Length
04 148 ft / 45 m 8,197 ft / 2,499 m 45.65° 37.53° Concrete 0 ft / 0 m 165 ft / 50 m
04R 245 ft / 75 m 6,393 ft / 1,949 m 45.77° 37.65° Grass 0 ft / 0 m 0 ft / 0 m
08 280 ft / 85 m 4,319 ft / 1,316 m 91.91° 83.79° Grass 0 ft / 0 m 0 ft / 0 m
22 148 ft / 45 m 8,197 ft / 2,499 m 225.67° 217.55° Concrete 0 ft / 0 m 165 ft / 50 m
22L 245 ft / 75 m 6,393 ft / 1,949 m 225.78° 217.66° Grass 0 ft / 0 m 0 ft / 0 m
26 280 ft / 85 m 4,319 ft / 1,316 m 271.92° 263.80° Grass 0 ft / 0 m 0 ft / 0 m

UKOH

Details ICAO UKOH (KHE)
Name Khersones AB
Region Ukraine
Timezone Europe/Simferopol (UTC+3.0)
Stats Elevation 39 ft / 12 m (AMSL)
Location 44.579449° 33.396017°
Runways 1
Magnetic Variation 6.625° E

METAR

UKOH 111930Z 20005MPS 160V230 CAVOK 07/05 Q1016 R03/CLRD65 NOSIG

Decode

TAF

Not found

Destination Runways

ID Width Length Bearing (true) Bearing (mag) Surface Threshold Offset Overrun Length
13 115 ft / 35 m 5,621 ft / 1,713 m 10.70° 4.08° Concrete 0 ft / 0 m 0 ft / 0 m
31 115 ft / 35 m 5,621 ft / 1,713 m 190.70° 184.08° Concrete 0 ft / 0 m 0 ft / 0 m